Time;durP1;ratioP1;P1;durP2;ratioP2;P2;SDS_P1;SDS_P2;PMS_P1;PMS_P2;Temp;Humidity;BMP_temperature;BMP_pressure;BME280_temperature;BME280_humidity;BME280_pressure;Samples;Min_cycle;Max_cycle;Signal;HPM_P1;HPM_P2
2021/12/14 00:01:55;;;;;;;13.40;9.70;;;7.50;82.20;;;;;;5035060;28;20228;-81
2021/12/14 00:04:28;;;;;;;13.45;9.20;;;7.40;83.00;;;;;;5021537;28;20791;-81
2021/12/14 00:06:55;;;;;;;11.57;9.18;;;7.30;84.10;;;;;;5020500;28;20246;-80
2021/12/14 00:09:28;;;;;;;12.05;10.30;;;7.30;84.80;;;;;;5023453;28;20573;-80
2021/12/14 00:12:13;;;;;;;14.63;9.90;;;7.30;84.60;;;;;;5019296;28;20224;-81
2021/12/14 00:17:29;;;;;;;15.00;11.00;;;7.20;86.50;;;;;;5019057;28;20227;-82
2021/12/14 00:20:00;;;;;;;13.65;10.63;;;7.20;87.10;;;;;;5019638;28;20204;-83
2021/12/14 00:22:35;;;;;;;13.73;10.45;;;7.20;87.40;;;;;;5020145;28;20251;-82
2021/12/14 00:25:03;;;;;;;14.15;10.52;;;7.20;87.40;;;;;;5019760;28;20671;-82
2021/12/14 00:27:32;;;;;;;12.95;10.10;;;7.30;87.50;;;;;;5020524;28;20278;-81
2021/12/14 00:30:02;;;;;;;13.82;10.90;;;7.30;87.50;;;;;;5018082;28;20203;-82
2021/12/14 00:32:35;;;;;;;12.60;10.35;;;7.30;87.10;;;;;;5017213;28;20240;-82
2021/12/14 00:35:03;;;;;;;15.18;11.82;;;7.30;87.50;;;;;;5018559;28;20215;-82
2021/12/14 00:37:33;;;;;;;15.18;12.35;;;7.30;87.50;;;;;;5018231;28;20208;-81
2021/12/14 00:40:02;;;;;;;17.38;14.25;;;7.30;87.60;;;;;;5023207;28;20624;-82
2021/12/14 00:42:29;;;;;;;18.55;13.50;;;7.30;88.80;;;;;;5038627;28;20237;-81
2021/12/14 00:44:57;;;;;;;21.42;13.93;;;7.30;89.50;;;;;;5038062;28;20215;-82
2021/12/14 00:47:24;;;;;;;16.55;13.23;;;7.30;90.00;;;;;;5037935;28;20302;-82
2021/12/14 00:49:54;;;;;;;17.08;13.75;;;7.20;89.90;;;;;;5050237;28;20258;-82
2021/12/14 00:52:22;;;;;;;14.98;12.25;;;7.30;89.90;;;;;;5055156;28;20215;-81
2021/12/14 00:54:49;;;;;;;19.13;13.88;;;7.30;89.80;;;;;;5056011;28;20203;-79
2021/12/14 00:57:17;;;;;;;15.45;12.43;;;7.30;90.10;;;;;;5056258;28;20199;-81
2021/12/14 00:59:45;;;;;;;18.58;15.13;;;7.10;89.90;;;;;;5055752;28;20297;-79
2021/12/14 01:02:16;;;;;;;21.30;15.43;;;7.10;90.20;;;;;;5055927;28;20227;-81
2021/12/14 01:04:46;;;;;;;20.95;15.63;;;7.20;90.60;;;;;;5056588;28;20207;-81
2021/12/14 01:07:16;;;;;;;16.65;13.52;;;7.20;90.60;;;;;;5056023;28;20273;-80
2021/12/14 01:09:48;;;;;;;17.13;13.02;;;7.20;90.70;;;;;;5055893;28;20188;-80
2021/12/14 01:12:28;;;;;;;19.27;14.77;;;7.10;90.70;;;;;;5053410;28;20223;-80
2021/12/14 01:15:12;;;;;;;14.98;11.85;;;7.10;90.60;;;;;;5054630;28;20206;-80
2021/12/14 01:17:53;;;;;;;18.77;13.80;;;7.10;90.60;;;;;;5056287;28;20215;-82
2021/12/14 01:20:21;;;;;;;19.85;13.85;;;7.10;91.00;;;;;;5056453;28;20171;-79
2021/12/14 01:22:59;;;;;;;15.65;12.70;;;7.10;91.00;;;;;;5055806;28;20231;-80
2021/12/14 01:25:32;;;;;;;18.60;14.25;;;7.00;90.90;;;;;;5056354;28;20225;-80
2021/12/14 01:28:03;;;;;;;18.77;13.10;;;7.10;91.10;;;;;;5055432;28;20266;-80
2021/12/14 01:30:37;;;;;;;15.05;13.07;;;7.00;90.50;;;;;;5042180;28;20301;-80
2021/12/14 01:33:12;;;;;;;18.27;12.82;;;7.00;90.90;;;;;;5038581;28;20225;-79
2021/12/14 01:35:41;;;;;;;17.88;11.77;;;7.00;91.10;;;;;;5042600;28;20214;-81
2021/12/14 01:38:31;;;;;;;16.15;12.48;;;7.00;91.30;;;;;;5040580;28;20200;-81
2021/12/14 01:41:02;;;;;;;20.13;12.52;;;7.00;91.10;;;;;;5038185;28;20208;-80
2021/12/14 01:43:34;;;;;;;15.77;12.98;;;7.00;91.40;;;;;;5043509;28;20213;-80
2021/12/14 01:46:07;;;;;;;17.20;11.95;;;7.00;91.50;;;;;;5054909;28;20198;-80
2021/12/14 01:48:36;;;;;;;13.65;10.73;;;7.00;91.40;;;;;;5046485;28;20193;-80
2021/12/14 01:51:07;;;;;;;14.43;11.60;;;7.00;91.20;;;;;;5042761;28;20310;-79
2021/12/14 01:53:35;;;;;;;13.95;10.77;;;7.00;90.90;;;;;;5044021;28;20674;-81
2021/12/14 01:56:06;;;;;;;13.60;11.25;;;7.00;91.10;;;;;;5045215;28;20245;-80
2021/12/14 01:58:38;;;;;;;15.00;12.20;;;7.00;91.30;;;;;;5047166;28;20537;-80
2021/12/14 02:01:11;;;;;;;12.18;10.82;;;6.90;91.30;;;;;;5055488;28;20219;-80
2021/12/14 02:03:45;;;;;;;14.00;12.05;;;6.90;91.40;;;;;;5059467;28;20198;-81
2021/12/14 02:06:15;;;;;;;13.50;11.60;;;6.90;92.20;;;;;;5056173;28;20201;-81
2021/12/14 02:08:42;;;;;;;13.45;11.98;;;6.90;92.30;;;;;;5057478;28;20207;-81
2021/12/14 02:11:10;;;;;;;13.13;11.68;;;6.90;92.30;;;;;;5057460;28;20223;-80
2021/12/14 02:13:40;;;;;;;15.15;13.38;;;6.90;92.40;;;;;;5053989;28;20231;-81
2021/12/14 02:16:09;;;;;;;13.35;11.85;;;6.90;92.30;;;;;;5049734;28;20245;-81
2021/12/14 02:18:36;;;;;;;17.33;14.10;;;7.00;92.40;;;;;;5045149;28;20207;-80
2021/12/14 02:21:08;;;;;;;15.40;13.43;;;7.00;92.40;;;;;;5053840;28;20211;-81
2021/12/14 02:23:38;;;;;;;16.75;14.05;;;7.10;92.30;;;;;;5059523;28;20207;-81
2021/12/14 02:26:09;;;;;;;16.40;13.70;;;7.10;91.60;;;;;;5054142;28;20263;-80
2021/12/14 02:28:37;;;;;;;16.00;13.93;;;7.10;91.40;;;;;;5059783;28;20186;-79
2021/12/14 02:31:08;;;;;;;19.73;14.40;;;7.10;91.00;;;;;;5059033;28;20227;-80
2021/12/14 02:33:38;;;;;;;18.73;13.85;;;7.10;90.90;;;;;;5058359;28;20196;-79
2021/12/14 02:36:08;;;;;;;19.60;14.75;;;7.00;90.60;;;;;;5057721;28;20192;-80
2021/12/14 02:38:41;;;;;;;18.85;14.23;;;7.00;90.70;;;;;;5054751;28;20295;-80
2021/12/14 02:41:09;;;;;;;17.83;14.93;;;7.00;90.60;;;;;;5054550;28;20231;-79
2021/12/14 02:43:40;;;;;;;18.45;15.70;;;7.00;90.60;;;;;;5042572;28;20233;-80
2021/12/14 02:46:13;;;;;;;22.92;15.88;;;7.00;90.90;;;;;;5040192;28;20274;-80
2021/12/14 02:48:41;;;;;;;19.58;15.43;;;6.90;91.40;;;;;;5054264;28;20223;-80
2021/12/14 02:51:13;;;;;;;17.83;14.55;;;7.00;91.40;;;;;;5056444;28;20290;-81
2021/12/14 02:53:41;;;;;;;20.58;15.82;;;7.00;91.40;;;;;;5053653;28;20215;-81
2021/12/14 02:56:17;;;;;;;15.85;13.85;;;7.00;90.90;;;;;;5046617;28;20207;-81
2021/12/14 02:58:46;;;;;;;19.00;14.55;;;7.00;91.20;;;;;;5041273;28;20203;-81
2021/12/14 03:01:14;;;;;;;21.02;15.00;;;7.00;91.10;;;;;;5042199;28;20706;-82
2021/12/14 03:03:41;;;;;;;19.30;15.60;;;7.00;91.30;;;;;;5043522;28;20283;-80
2021/12/14 03:06:15;;;;;;;19.15;16.38;;;6.90;91.60;;;;;;5046542;28;20215;-80
2021/12/14 03:08:56;;;;;;;20.95;16.08;;;6.90;92.00;;;;;;5044263;28;20290;-81
2021/12/14 03:11:23;;;;;;;22.45;16.95;;;6.90;92.30;;;;;;5046020;28;20394;-80
2021/12/14 03:13:56;;;;;;;21.05;17.13;;;6.90;92.30;;;;;;5043914;28;20231;-82
2021/12/14 03:16:25;;;;;;;21.42;17.63;;;6.90;92.30;;;;;;5041161;28;20298;-80
2021/12/14 03:18:55;;;;;;;22.90;17.83;;;6.90;92.50;;;;;;5042858;28;20245;-80
2021/12/14 03:21:26;;;;;;;18.40;15.63;;;6.90;92.80;;;;;;5041943;28;20284;-80
2021/12/14 03:23:58;;;;;;;19.52;16.45;;;6.90;92.90;;;;;;5043037;28;20215;-80
2021/12/14 03:26:28;;;;;;;24.15;18.05;;;6.80;93.00;;;;;;5040076;28;20209;-79
2021/12/14 03:28:58;;;;;;;22.25;17.00;;;6.80;93.40;;;;;;5043957;28;20233;-80
2021/12/14 03:31:29;;;;;;;21.25;17.42;;;6.80;94.00;;;;;;5046099;28;20246;-81
2021/12/14 03:34:00;;;;;;;23.55;17.60;;;6.80;94.10;;;;;;5051279;28;20229;-80
2021/12/14 03:36:32;;;;;;;21.48;16.55;;;6.80;93.70;;;;;;5049456;28;20231;-79
2021/12/14 03:39:10;;;;;;;20.02;15.98;;;6.80;94.10;;;;;;5043276;28;20217;-81
2021/12/14 03:41:41;;;;;;;21.75;18.08;;;6.80;94.10;;;;;;5051000;28;20235;-79
2021/12/14 03:44:11;;;;;;;20.08;14.93;;;6.80;94.10;;;;;;5051124;28;20230;-80
2021/12/14 03:46:45;;;;;;;19.88;15.10;;;6.80;94.10;;;;;;5045878;28;20274;-80
2021/12/14 03:49:12;;;;;;;21.42;15.85;;;6.80;94.00;;;;;;5046679;28;20215;-81
2021/12/14 03:51:52;;;;;;;21.92;15.50;;;6.70;94.10;;;;;;5053512;28;20231;-80
2021/12/14 03:54:21;;;;;;;22.48;16.17;;;6.70;94.50;;;;;;5053965;28;20203;-80
2021/12/14 03:56:49;;;;;;;22.52;16.45;;;6.70;94.80;;;;;;5047371;28;20215;-81
2021/12/14 03:59:16;;;;;;;22.63;17.05;;;6.70;95.10;;;;;;5046274;28;20207;-82
2021/12/14 04:01:46;;;;;;;22.38;17.42;;;6.60;95.00;;;;;;5037767;28;20678;-80
2021/12/14 04:04:18;;;;;;;22.23;16.35;;;6.50;95.50;;;;;;5041087;28;20234;-80
2021/12/14 04:06:49;;;;;;;23.45;16.48;;;6.60;95.80;;;;;;5044132;28;20203;-80
2021/12/14 04:09:19;;;;;;;21.95;16.50;;;6.60;95.80;;;;;;5042513;28;20195;-79
2021/12/14 04:11:47;;;;;;;21.15;15.60;;;6.50;95.80;;;;;;5042334;28;20306;-82
2021/12/14 04:14:15;;;;;;;21.60;16.40;;;6.40;96.10;;;;;;5042059;28;20780;-81
2021/12/14 04:16:45;;;;;;;21.75;16.35;;;6.40;96.00;;;;;;5042948;28;20294;-80
2021/12/14 04:19:20;;;;;;;25.23;17.67;;;6.40;96.60;;;;;;5042668;28;20215;-80
2021/12/14 04:21:49;;;;;;;21.65;16.20;;;6.30;96.90;;;;;;5043714;28;20309;-81
2021/12/14 04:24:21;;;;;;;23.65;18.17;;;6.30;97.40;;;;;;5050174;28;20279;-80
2021/12/14 04:26:48;;;;;;;27.23;17.83;;;6.30;97.40;;;;;;5049533;28;20257;-80
2021/12/14 04:29:20;;;;;;;26.52;18.88;;;6.40;97.50;;;;;;5050997;28;20203;-81
2021/12/14 04:31:47;;;;;;;25.05;18.58;;;6.40;97.20;;;;;;5050368;28;20741;-80
2021/12/14 04:34:17;;;;;;;24.10;17.92;;;6.30;97.40;;;;;;5048776;28;20207;-80
2021/12/14 04:36:46;;;;;;;28.30;18.60;;;6.30;97.40;;;;;;5046458;28;20671;-81
2021/12/14 04:39:35;;;;;;;26.33;17.27;;;6.30;97.40;;;;;;5049396;28;20214;-81
2021/12/14 04:53:35;;;;;;;28.42;17.77;;;6.30;97.70;;;;;;5045829;28;20201;-80
2021/12/14 04:56:06;;;;;;;29.23;17.50;;;6.40;97.90;;;;;;5035109;28;20249;-80
2021/12/14 04:58:37;;;;;;;27.65;18.65;;;6.40;97.50;;;;;;5036653;28;20203;-80
2021/12/14 05:01:07;;;;;;;26.20;18.27;;;6.30;97.40;;;;;;5023138;28;20259;-80
2021/12/14 05:03:38;;;;;;;30.48;19.85;;;6.30;97.50;;;;;;5018547;28;20278;-79
2021/12/14 05:06:13;;;;;;;33.67;19.70;;;6.30;97.80;;;;;;5039173;28;20206;-80
2021/12/14 05:11:26;;;;;;;39.83;20.67;;;6.20;99.00;;;;;;5020271;28;20230;-80
2021/12/14 05:13:59;;;;;;;36.70;21.13;;;6.30;98.80;;;;;;5027975;28;20195;-79
2021/12/14 05:16:29;;;;;;;30.73;18.90;;;6.30;98.90;;;;;;5036993;28;20283;-79
2021/12/14 05:18:58;;;;;;;32.10;19.58;;;6.30;98.80;;;;;;5036241;28;20207;-79
2021/12/14 05:21:28;;;;;;;28.48;18.92;;;6.20;98.70;;;;;;5023639;28;20318;-79
2021/12/14 05:23:56;;;;;;;29.60;19.08;;;6.30;99.10;;;;;;5024392;28;20265;-79
2021/12/14 05:26:23;;;;;;;34.75;18.65;;;6.30;99.00;;;;;;5041513;28;20207;-80
2021/12/14 05:28:57;;;;;;;34.30;18.90;;;6.30;98.80;;;;;;5022424;28;20200;-80
2021/12/14 05:31:24;;;;;;;35.70;20.00;;;6.20;98.50;;;;;;5030256;28;20234;-78
2021/12/14 05:33:52;;;;;;;39.00;20.27;;;6.20;99.20;;;;;;5030264;28;20210;-77
2021/12/14 05:36:21;;;;;;;37.30;20.98;;;6.20;98.80;;;;;;5030987;28;20239;-78
2021/12/14 05:38:56;;;;;;;37.83;20.83;;;6.20;99.00;;;;;;5031798;28;20200;-77
2021/12/14 05:44:14;;;;;;;41.90;21.63;;;6.10;99.90;;;;;;5034549;28;20218;-78
2021/12/14 05:46:49;;;;;;;39.85;21.65;;;6.00;99.90;;;;;;5033468;28;20223;-79
2021/12/14 05:49:18;;;;;;;40.90;22.67;;;6.00;99.90;;;;;;5033401;28;20175;-78
2021/12/14 05:51:46;;;;;;;38.97;22.20;;;6.10;99.90;;;;;;5031576;28;20295;-78
2021/12/14 05:54:19;;;;;;;41.90;21.88;;;6.10;99.90;;;;;;5031836;28;20651;-78
2021/12/14 05:56:46;;;;;;;40.58;20.73;;;6.20;99.90;;;;;;5033496;28;20234;-78
2021/12/14 05:59:18;;;;;;;44.22;21.80;;;6.20;99.90;;;;;;5032255;28;20271;-79
2021/12/14 06:01:45;;;;;;;41.58;21.85;;;6.20;99.90;;;;;;5030123;28;20271;-79
2021/12/14 06:04:12;;;;;;;44.42;20.73;;;6.20;99.90;;;;;;5028135;28;20224;-79
2021/12/14 06:06:42;;;;;;;41.55;20.55;;;6.20;99.90;;;;;;5023350;28;20208;-78
2021/12/14 06:09:12;;;;;;;45.03;21.35;;;6.20;99.90;;;;;;5028371;28;20212;-78
2021/12/14 06:11:39;;;;;;;41.03;20.15;;;6.10;99.90;;;;;;5027637;28;20291;-77
2021/12/14 06:14:16;;;;;;;46.22;19.95;;;6.10;99.90;;;;;;5028392;28;20213;-78
2021/12/14 06:16:43;;;;;;;37.45;18.73;;;6.10;99.90;;;;;;5028871;28;20211;-78
2021/12/14 06:19:18;;;;;;;47.15;20.80;;;6.00;99.90;;;;;;5028081;28;20278;-78
2021/12/14 06:21:49;;;;;;;41.97;20.80;;;6.10;99.90;;;;;;5026944;28;20239;-78
2021/12/14 06:24:16;;;;;;;37.88;19.38;;;6.00;99.90;;;;;;5017693;28;20212;-80
2021/12/14 06:26:46;;;;;;;42.58;19.77;;;6.00;99.90;;;;;;5016802;28;20236;-79
2021/12/14 06:29:16;;;;;;;42.38;20.90;;;6.00;99.90;;;;;;5021287;28;20217;-78
2021/12/14 06:31:44;;;;;;;32.70;17.23;;;6.00;99.90;;;;;;5020041;28;20247;-77
2021/12/14 06:34:13;;;;;;;32.65;16.95;;;6.00;99.90;;;;;;5021815;28;20286;-79
2021/12/14 06:37:17;;;;;;;34.85;16.25;;;6.00;99.90;;;;;;5021549;28;20216;-78
2021/12/14 06:40:10;;;;;;;32.33;16.50;;;6.00;99.90;;;;;;5033338;28;20219;-78
2021/12/14 06:42:40;;;;;;;25.95;15.00;;;6.00;99.90;;;;;;5031497;28;20236;-79
2021/12/14 06:45:12;;;;;;;27.95;14.27;;;6.00;99.90;;;;;;5021643;28;20617;-78
2021/12/14 06:47:40;;;;;;;28.08;14.93;;;6.00;99.90;;;;;;5019875;28;20212;-78
2021/12/14 06:50:11;;;;;;;29.73;15.23;;;6.00;99.90;;;;;;5020798;28;20215;-79
2021/12/14 06:52:38;;;;;;;28.05;14.85;;;6.00;99.90;;;;;;5021031;28;20326;-79
2021/12/14 06:55:07;;;;;;;27.63;14.98;;;5.90;99.90;;;;;;5019705;28;20222;-79
2021/12/14 06:57:34;;;;;;;32.65;15.55;;;5.90;99.90;;;;;;5019959;28;20222;-78
2021/12/14 07:00:04;;;;;;;31.77;17.42;;;5.90;99.90;;;;;;5020291;28;20212;-79
2021/12/14 07:02:33;;;;;;;30.20;17.58;;;5.80;99.90;;;;;;5019245;28;20255;-78
2021/12/14 07:04:59;;;;;;;34.53;17.73;;;5.80;99.90;;;;;;5019362;28;20215;-78
2021/12/14 07:07:29;;;;;;;26.20;13.82;;;5.80;99.90;;;;;;5019704;28;20214;-77
2021/12/14 07:09:58;;;;;;;32.20;15.32;;;5.80;99.90;;;;;;5018922;28;20235;-78
2021/12/14 07:12:28;;;;;;;27.45;15.05;;;5.80;99.90;;;;;;5020830;28;20227;-78
2021/12/14 07:15:12;;;;;;;22.40;13.23;;;5.80;99.90;;;;;;5030360;28;20226;-78
2021/12/14 07:17:48;;;;;;;22.05;12.30;;;5.80;99.90;;;;;;5020027;28;20299;-78
2021/12/14 07:20:26;;;;;;;24.15;12.52;;;5.90;99.90;;;;;;5022285;28;20224;-79
2021/12/14 07:22:55;;;;;;;24.58;13.80;;;5.90;99.90;;;;;;5029266;28;20283;-78
2021/12/14 07:25:25;;;;;;;22.33;13.13;;;5.80;99.90;;;;;;5026068;28;20204;-78
2021/12/14 07:27:54;;;;;;;21.70;11.90;;;5.70;99.90;;;;;;5020924;28;20259;-79
2021/12/14 07:30:25;;;;;;;19.95;10.90;;;5.70;99.90;;;;;;5021629;28;20212;-78
2021/12/14 07:33:01;;;;;;;29.67;14.05;;;5.70;99.90;;;;;;5020383;28;20263;-78
2021/12/14 07:35:42;;;;;;;24.90;12.60;;;5.80;99.90;;;;;;5018817;28;20203;-78
2021/12/14 07:38:28;;;;;;;26.05;13.25;;;5.90;99.90;;;;;;5019145;28;20695;-78
2021/12/14 07:41:00;;;;;;;30.60;13.43;;;5.80;99.90;;;;;;5026100;28;20204;-79
2021/12/14 07:43:31;;;;;;;25.42;13.38;;;5.70;99.90;;;;;;5026100;28;20215;-78
2021/12/14 07:45:59;;;;;;;28.63;13.85;;;5.60;99.90;;;;;;5020986;28;20299;-78
2021/12/14 07:48:44;;;;;;;22.75;11.90;;;5.50;99.90;;;;;;5025474;28;20220;-79
2021/12/14 07:51:11;;;;;;;24.40;14.00;;;5.50;99.90;;;;;;5024743;28;20259;-78
2021/12/14 07:53:41;;;;;;;25.52;13.90;;;5.50;99.90;;;;;;5019427;28;20206;-79
2021/12/14 07:56:10;;;;;;;24.63;14.10;;;5.50;99.90;;;;;;5020178;28;20250;-79
2021/12/14 07:58:40;;;;;;;24.08;13.18;;;5.60;99.90;;;;;;5019659;28;20239;-79
2021/12/14 08:01:08;;;;;;;25.42;14.43;;;5.70;99.90;;;;;;5019112;28;20231;-80
2021/12/14 08:03:37;;;;;;;21.85;13.50;;;5.70;99.90;;;;;;5020354;28;20230;-78
2021/12/14 08:06:08;;;;;;;23.83;13.32;;;5.70;99.90;;;;;;5025890;28;20204;-79
2021/12/14 08:08:44;;;;;;;26.05;14.70;;;5.80;99.70;;;;;;5025705;28;20254;-79
2021/12/14 08:11:29;;;;;;;26.00;14.57;;;5.70;98.80;;;;;;5029570;28;20250;-79
2021/12/14 08:13:59;;;;;;;29.73;14.45;;;5.70;98.40;;;;;;5028856;28;20199;-79
2021/12/14 08:16:26;;;;;;;29.98;15.20;;;5.70;98.80;;;;;;5026671;28;20208;-78
2021/12/14 08:18:54;;;;;;;28.70;14.82;;;5.80;98.70;;;;;;5024971;28;20271;-78
2021/12/14 08:21:25;;;;;;;29.95;15.65;;;5.80;98.30;;;;;;5026014;28;20254;-78
2021/12/14 08:23:54;;;;;;;29.17;13.50;;;5.80;98.00;;;;;;5024614;28;20310;-78
2021/12/14 08:26:26;;;;;;;31.52;12.77;;;5.90;97.40;;;;;;5026929;28;20262;-79
2021/12/14 08:28:55;;;;;;;19.48;11.88;;;5.90;96.60;;;;;;5018709;28;20192;-78
2021/12/14 08:31:25;;;;;;;24.45;14.48;;;5.80;95.50;;;;;;5017776;28;20250;-77
2021/12/14 08:33:57;;;;;;;26.02;13.20;;;5.80;95.50;;;;;;5017514;28;20684;-80
2021/12/14 08:36:33;;;;;;;24.77;14.02;;;5.80;95.30;;;;;;5019108;28;20211;-78
2021/12/14 08:39:08;;;;;;;22.92;12.93;;;5.90;94.90;;;;;;5019833;28;20707;-81
2021/12/14 08:41:36;;;;;;;22.73;12.15;;;5.90;93.90;;;;;;5018341;28;20306;-78
2021/12/14 08:44:10;;;;;;;22.10;12.40;;;5.80;93.70;;;;;;5018861;28;20298;-79
2021/12/14 08:46:58;;;;;;;22.88;13.27;;;5.80;94.00;;;;;;5017533;28;20269;-81
2021/12/14 08:49:25;;;;;;;26.42;12.85;;;5.80;93.70;;;;;;5018757;28;20211;-78
2021/12/14 08:51:56;;;;;;;27.35;12.65;;;5.80;94.50;;;;;;5017097;28;20732;-80
2021/12/14 08:54:27;;;;;;;23.20;12.95;;;5.80;93.60;;;;;;5018412;28;20208;-79
2021/12/14 08:57:00;;;;;;;25.17;12.73;;;5.80;93.90;;;;;;5017935;28;20207;-78
2021/12/14 08:59:29;;;;;;;24.52;12.57;;;5.80;94.10;;;;;;5018428;28;20219;-78
2021/12/14 09:01:58;;;;;;;25.17;13.23;;;5.80;93.90;;;;;;5020552;28;20227;-79
2021/12/14 09:04:29;;;;;;;28.80;14.02;;;5.70;94.20;;;;;;5028071;28;20220;-77
2021/12/14 09:07:01;;;;;;;29.50;15.32;;;5.70;94.50;;;;;;5024335;28;20325;-79
2021/12/14 09:09:28;;;;;;;24.13;14.65;;;5.70;94.80;;;;;;5030430;28;20202;-78
2021/12/14 09:11:59;;;;;;;24.63;13.15;;;5.80;95.00;;;;;;5030820;28;20223;-78
2021/12/14 09:14:26;;;;;;;27.75;13.98;;;5.80;94.80;;;;;;5030895;28;20226;-80
2021/12/14 09:16:57;;;;;;;27.67;13.98;;;5.80;94.50;;;;;;5032578;28;20203;-78
2021/12/14 09:19:27;;;;;;;23.75;13.65;;;5.90;94.40;;;;;;5030809;28;20208;-79
2021/12/14 09:22:02;;;;;;;29.83;14.40;;;5.80;93.90;;;;;;5022924;28;20231;-78
2021/12/14 09:24:32;;;;;;;37.13;15.70;;;5.80;94.20;;;;;;5020053;28;20694;-79
2021/12/14 09:27:04;;;;;;;25.50;14.18;;;5.70;94.10;;;;;;5025360;28;20212;-77
2021/12/14 09:29:33;;;;;;;30.77;15.13;;;5.70;95.10;;;;;;5022972;28;20246;-79
2021/12/14 09:32:03;;;;;;;35.30;15.68;;;5.70;95.10;;;;;;5020046;28;20240;-79
2021/12/14 09:34:33;;;;;;;32.25;15.38;;;5.80;95.50;;;;;;5020166;28;20651;-78
2021/12/14 09:37:02;;;;;;;29.25;15.15;;;5.90;95.50;;;;;;5017588;28;20286;-78
2021/12/14 09:39:33;;;;;;;33.70;15.75;;;5.90;95.40;;;;;;5018106;28;20211;-78
2021/12/14 09:42:02;;;;;;;30.90;15.70;;;5.90;94.80;;;;;;5015634;28;20319;-80
2021/12/14 09:44:31;;;;;;;31.67;16.23;;;5.90;94.80;;;;;;5016140;28;20242;-79
2021/12/14 09:47:04;;;;;;;30.67;16.52;;;6.00;94.60;;;;;;5017303;28;20368;-78
2021/12/14 09:49:31;;;;;;;35.60;16.98;;;6.00;94.30;;;;;;5017716;28;20196;-79
2021/12/14 09:52:05;;;;;;;31.85;16.65;;;6.00;93.90;;;;;;5015926;28;20232;-78
2021/12/14 09:54:33;;;;;;;32.38;17.30;;;6.00;93.90;;;;;;5015515;28;20203;-79
2021/12/14 09:57:06;;;;;;;39.83;17.15;;;5.90;93.60;;;;;;5014891;28;20625;-79
2021/12/14 09:59:33;;;;;;;35.58;17.88;;;5.90;93.40;;;;;;5015517;28;20291;-78
2021/12/14 10:02:04;;;;;;;34.22;18.27;;;5.90;93.50;;;;;;5016969;28;20235;-78
2021/12/14 10:04:36;;;;;;;33.50;17.73;;;5.90;93.60;;;;;;5019608;28;20302;-80
2021/12/14 10:07:05;;;;;;;32.10;17.45;;;5.90;93.60;;;;;;5020467;28;20263;-78
2021/12/14 10:09:41;;;;;;;34.85;17.95;;;5.90;93.70;;;;;;5021741;28;20208;-78
2021/12/14 10:12:39;;;;;;;30.02;16.70;;;6.00;93.30;;;;;;5020340;28;20280;-78
2021/12/14 10:15:10;;;;;;;32.58;17.38;;;6.00;93.30;;;;;;5019542;28;20208;-78
2021/12/14 10:17:39;;;;;;;31.67;17.17;;;6.10;92.50;;;;;;5019430;28;20278;-78
2021/12/14 10:20:08;;;;;;;27.48;16.20;;;6.10;92.00;;;;;;5020021;28;20265;-78
2021/12/14 10:22:36;;;;;;;30.98;16.60;;;6.20;91.90;;;;;;5019790;28;20224;-79
2021/12/14 10:25:07;;;;;;;33.67;16.58;;;6.10;91.10;;;;;;5019921;28;20395;-79
2021/12/14 10:27:35;;;;;;;29.58;15.93;;;6.10;91.50;;;;;;5031565;28;20230;-77
2021/12/14 10:30:08;;;;;;;28.80;16.90;;;6.20;91.20;;;;;;5037401;28;20207;-79
2021/12/14 10:32:36;;;;;;;27.13;16.67;;;6.30;91.20;;;;;;5035075;28;20295;-79
2021/12/14 10:35:07;;;;;;;28.42;15.82;;;6.30;90.80;;;;;;5036866;28;20219;-78
2021/12/14 10:37:52;;;;;;;32.25;17.33;;;6.30;90.30;;;;;;5036963;28;20212;-79
2021/12/14 10:43:12;;;;;;;27.55;15.90;;;6.40;90.30;;;;;;5033239;28;20250;-79
2021/12/14 10:45:42;;;;;;;29.30;15.85;;;6.40;90.30;;;;;;5022247;28;20234;-78
2021/12/14 10:48:10;;;;;;;27.98;16.27;;;6.40;89.50;;;;;;5021854;28;20269;-79
2021/12/14 10:50:38;;;;;;;32.35;16.65;;;6.40;89.90;;;;;;5023403;28;20242;-78
2021/12/14 10:53:09;;;;;;;28.85;17.10;;;6.30;89.50;;;;;;5030007;28;20231;-78
2021/12/14 10:55:40;;;;;;;32.63;17.33;;;6.40;90.50;;;;;;5032377;28;20243;-79
2021/12/14 10:58:08;;;;;;;30.80;16.27;;;6.50;90.40;;;;;;5033333;28;20212;-79
2021/12/14 11:00:39;;;;;;;30.25;16.15;;;6.50;90.40;;;;;;5031748;28;20239;-79
2021/12/14 11:03:10;;;;;;;32.38;18.60;;;6.60;90.40;;;;;;5035394;28;20211;-79
2021/12/14 11:05:39;;;;;;;29.02;17.00;;;6.60;90.20;;;;;;5036283;28;20684;-79
2021/12/14 11:08:19;;;;;;;31.92;16.65;;;6.60;88.80;;;;;;5021605;28;20311;-78
2021/12/14 11:10:47;;;;;;;32.92;17.65;;;6.50;88.80;;;;;;5020423;28;20254;-79
2021/12/14 11:13:15;;;;;;;32.75;18.20;;;6.40;89.90;;;;;;5018292;28;20211;-79
2021/12/14 11:15:44;;;;;;;35.80;18.17;;;6.40;90.30;;;;;;5018844;28;20234;-79
2021/12/14 11:18:17;;;;;;;33.88;19.13;;;6.40;90.40;;;;;;5017777;28;20219;-77
2021/12/14 11:20:49;;;;;;;32.63;18.42;;;6.60;89.90;;;;;;5017966;28;20196;-78
2021/12/14 11:23:21;;;;;;;31.42;18.35;;;6.40;88.50;;;;;;5019106;28;20192;-80
2021/12/14 11:25:56;;;;;;;33.55;18.00;;;6.50;88.50;;;;;;5018407;28;20230;-78
2021/12/14 11:28:26;;;;;;;36.05;18.85;;;6.50;88.10;;;;;;5019215;28;20215;-79
2021/12/14 11:31:01;;;;;;;34.95;18.77;;;6.50;87.00;;;;;;5018366;28;20672;-79
2021/12/14 11:33:31;;;;;;;34.88;19.67;;;6.40;86.80;;;;;;5021387;28;20216;-80
2021/12/14 11:36:06;;;;;;;34.17;19.63;;;6.40;87.20;;;;;;5020984;28;20216;-79
2021/12/14 11:38:40;;;;;;;37.15;19.88;;;6.40;86.80;;;;;;5020611;28;20230;-78
2021/12/14 11:41:30;;;;;;;36.72;20.70;;;6.40;86.70;;;;;;5020978;28;20254;-80
2021/12/14 11:44:01;;;;;;;35.97;19.48;;;6.50;86.80;;;;;;5025375;28;20295;-80
2021/12/14 11:46:30;;;;;;;30.80;19.55;;;6.70;86.60;;;;;;5031754;28;20544;-80
2021/12/14 11:49:00;;;;;;;34.10;19.70;;;6.70;83.40;;;;;;5033787;28;20215;-80
2021/12/14 11:51:28;;;;;;;33.03;19.85;;;6.80;81.90;;;;;;5031274;28;20240;-80
2021/12/14 11:53:58;;;;;;;30.75;18.80;;;6.90;81.60;;;;;;5030157;28;20242;-80
2021/12/14 11:56:28;;;;;;;31.77;18.05;;;6.90;80.80;;;;;;5032908;28;20259;-79
2021/12/14 11:58:57;;;;;;;35.65;19.70;;;6.90;79.40;;;;;;5034536;28;20267;-80
2021/12/14 12:01:27;;;;;;;39.22;21.00;;;7.00;79.70;;;;;;5033284;28;20278;-79
2021/12/14 12:03:58;;;;;;;32.05;19.33;;;7.00;79.20;;;;;;5033593;28;20239;-78
2021/12/14 12:09:31;;;;;;;35.75;20.05;;;6.90;79.90;;;;;;5032209;28;20196;-80
2021/12/14 12:12:16;;;;;;;34.75;19.30;;;6.90;80.50;;;;;;5031767;28;20231;-80
2021/12/14 12:14:45;;;;;;;34.75;19.02;;;6.90;81.10;;;;;;5034388;28;20271;-80
2021/12/14 12:17:21;;;;;;;33.33;19.02;;;7.00;80.40;;;;;;5035485;28;20192;-80
2021/12/14 12:20:04;;;;;;;35.90;20.20;;;7.10;78.80;;;;;;5037510;28;20360;-80
2021/12/14 12:22:49;;;;;;;34.67;20.58;;;7.10;77.20;;;;;;5038057;28;20216;-80
2021/12/14 12:25:20;;;;;;;34.83;20.05;;;7.10;77.40;;;;;;5036347;28;20223;-80
2021/12/14 12:27:50;;;;;;;41.20;20.80;;;7.20;76.10;;;;;;5036938;28;20384;-80
2021/12/14 12:30:41;;;;;;;37.50;20.10;;;7.10;75.60;;;;;;5037173;28;20191;-78
2021/12/14 12:33:18;;;;;;;30.45;18.27;;;7.00;76.50;;;;;;5029638;28;20667;-79
2021/12/14 12:35:49;;;;;;;32.92;19.92;;;7.10;77.10;;;;;;5021243;28;20373;-80
2021/12/14 12:38:27;;;;;;;34.67;20.27;;;7.20;75.40;;;;;;5030197;28;20280;-80
2021/12/14 12:40:59;;;;;;;30.73;19.02;;;7.10;75.00;;;;;;5034224;28;20416;-80
2021/12/14 12:43:31;;;;;;;32.92;20.67;;;7.00;76.20;;;;;;5035214;28;20203;-80
2021/12/14 12:46:09;;;;;;;31.92;20.38;;;7.00;75.50;;;;;;5030640;28;20220;-81
2021/12/14 12:48:42;;;;;;;26.42;17.92;;;7.00;76.20;;;;;;5023074;28;20215;-82
2021/12/14 12:51:09;;;;;;;29.90;18.80;;;7.00;76.10;;;;;;5031002;28;20765;-80
2021/12/14 12:53:36;;;;;;;30.00;18.90;;;7.00;76.00;;;;;;5034180;28;20207;-81
2021/12/14 12:56:08;;;;;;;27.45;17.42;;;7.00;74.70;;;;;;5029156;28;20298;-81
2021/12/14 12:58:38;;;;;;;30.70;19.48;;;7.10;75.10;;;;;;5023785;28;20270;-80
2021/12/14 13:01:05;;;;;;;31.42;20.35;;;7.10;74.80;;;;;;5022012;28;20250;-79
2021/12/14 13:03:36;;;;;;;30.45;18.85;;;7.00;74.70;;;;;;5022585;28;20294;-78
2021/12/14 13:06:07;;;;;;;31.45;19.58;;;7.00;74.70;;;;;;5021545;28;20224;-79
2021/12/14 13:08:37;;;;;;;29.25;18.70;;;7.00;74.70;;;;;;5023328;28;20669;-80
2021/12/14 13:11:09;;;;;;;29.92;19.33;;;7.10;74.80;;;;;;5021514;28;20259;-81
2021/12/14 13:13:41;;;;;;;33.10;19.85;;;7.20;74.90;;;;;;5024565;28;20235;-80
2021/12/14 13:16:11;;;;;;;31.35;18.52;;;7.20;73.90;;;;;;5024243;28;20210;-80
2021/12/14 13:18:51;;;;;;;27.02;18.45;;;7.20;74.80;;;;;;5023216;28;20606;-80
2021/12/14 13:21:26;;;;;;;28.73;17.42;;;7.30;75.00;;;;;;5022247;28;20262;-80
2021/12/14 13:24:05;;;;;;;28.08;17.45;;;7.10;74.40;;;;;;5019860;28;20238;-80
2021/12/14 13:26:49;;;;;;;28.80;19.23;;;7.20;74.90;;;;;;5019906;28;20227;-79